sim
Sign-in with your pilot id or email,
or register
Callsign
Passwort

Schedule Details

Flight Number: RYR5082 (3)
Departure: Paphos International Airport (LCPH) at 08:10
Arrival: Thessaloniki International Airport (LGTS) at 10:15
Route: Ryanair Passenger Schedule. Enter filed route here before submitting Pirep.

Weather Information
Getting current METAR information for LCPH 211730Z 32007KT CAVOK 27/23 Q1010
Getting current METAR information for LGTS 211750Z 16005KT CAVOK 29/13 Q1016 NOSIG

Schedule Frequency

Route Map